createdAt,value
2023-01-01T00:03:40.655Z,55.67
2023-01-01T00:08:44.060Z,59.17
2023-01-01T00:13:47.431Z,69.05
2023-01-01T00:18:52.048Z,60.20
2023-01-01T00:23:55.452Z,54.58
2023-01-01T00:28:58.773Z,56.85
2023-01-01T00:34:03.545Z,56.17
2023-01-01T00:39:06.825Z,55.42
2023-01-01T00:44:10.093Z,63.92
2023-01-01T00:49:14.861Z,48.47
2023-01-01T00:54:18.121Z,41.20
2023-01-01T00:59:26.825Z,43.50
2023-01-01T01:04:33.286Z,36.20
2023-01-01T01:09:36.573Z,33.03
2023-01-01T01:14:39.854Z,34.97
2023-01-01T01:19:44.471Z,39.53
2023-01-01T01:24:47.843Z,43.15
2023-01-01T01:29:51.132Z,39.03
2023-01-01T01:34:55.771Z,42.25
2023-01-01T01:39:59.144Z,41.83
2023-01-01T01:45:03.628Z,39.88
2023-01-01T01:50:12.734Z,34.70
2023-01-01T01:55:16.116Z,33.88
2023-01-01T02:00:19.838Z,30.42
2023-01-01T02:05:26.115Z,29.08
2023-01-01T02:10:29.814Z,29.42
2023-01-01T02:15:45.356Z,32.15
2023-01-01T02:20:55.269Z,40.42
2023-01-01T02:26:22.291Z,46.47
2023-01-01T02:31:30.385Z,34.08
2023-01-01T02:36:36.001Z,32.85
2023-01-01T02:41:42.867Z,30.50
2023-01-01T02:46:47.520Z,33.17
2023-01-01T02:52:05.668Z,36.13
2023-01-01T02:57:17.824Z,32.20
2023-01-01T03:02:28.652Z,39.00
2023-01-01T03:07:40.225Z,40.15
2023-01-01T03:12:50.830Z,39.42
2023-01-01T03:18:03.532Z,34.13
2023-01-01T03:23:10.177Z,35.05
2023-01-01T03:28:18.269Z,35.80
2023-01-01T03:33:30.381Z,35.33
2023-01-01T03:38:38.775Z,37.30
2023-01-01T03:43:49.432Z,31.43
2023-01-01T03:49:03.180Z,32.33
2023-01-01T03:54:16.739Z,29.50
2023-01-01T03:59:25.495Z,33.10
2023-01-01T04:04:30.276Z,29.70
2023-01-01T04:09:35.265Z,30.42
2023-01-01T04:14:40.519Z,31.57
2023-01-01T04:19:48.845Z,29.27
2023-01-01T04:24:56.462Z,25.63
2023-01-01T04:29:59.800Z,30.07
2023-01-01T04:35:04.836Z,27.27
2023-01-01T04:40:09.822Z,26.00
2023-01-01T04:45:15.381Z,56.17
2023-01-01T04:50:20.453Z,57.58
2023-01-01T04:55:23.742Z,59.33
2023-01-01T05:00:27.044Z,57.03
2023-01-01T05:05:31.727Z,56.72
2023-01-01T05:10:34.989Z,55.30
2023-01-01T05:15:38.835Z,52.07
2023-01-01T05:20:43.468Z,54.47
2023-01-01T05:25:46.717Z,51.45
2023-01-01T05:30:50.066Z,48.75
2023-01-01T05:35:56.760Z,46.75
2023-01-01T05:41:00.132Z,49.58
2023-01-01T05:46:05.116Z,44.88
2023-01-01T05:51:12.199Z,47.67
2023-01-01T05:56:16.725Z,45.85
2023-01-01T06:01:22.652Z,48.05
2023-01-01T06:06:28.847Z,47.47
2023-01-01T06:11:32.677Z,51.53
2023-01-01T06:16:36.407Z,52.55
2023-01-01T06:21:41.167Z,57.13
2023-01-01T06:26:44.413Z,55.47
2023-01-01T06:31:47.670Z,58.63
2023-01-01T06:36:52.323Z,59.80
2023-01-01T06:41:55.559Z,61.10
2023-01-01T06:46:58.814Z,56.38
2023-01-01T06:52:03.426Z,54.72
2023-01-01T06:57:07.445Z,50.38
2023-01-01T07:02:12.473Z,50.93
2023-01-01T07:07:17.206Z,49.03
2023-01-01T07:12:20.429Z,48.03
2023-01-01T07:17:23.657Z,53.33
2023-01-01T07:22:28.269Z,46.33
2023-01-01T07:27:31.534Z,46.30
2023-01-01T07:32:34.773Z,46.80
2023-01-01T07:37:39.649Z,47.35
2023-01-01T07:42:44.573Z,55.65
2023-01-01T07:47:52.465Z,66.30
2023-01-01T07:52:57.233Z,41.30
2023-01-01T07:58:00.530Z,28.53
2023-01-01T08:03:04.134Z,22.70
2023-01-01T08:08:09.837Z,23.00
2023-01-01T08:13:13.302Z,21.60
2023-01-01T08:18:16.607Z,19.92
2023-01-01T08:23:21.469Z,20.45
2023-01-01T08:28:24.805Z,22.23
2023-01-01T08:33:28.369Z,23.08
2023-01-01T08:38:33.083Z,24.52
2023-01-01T08:43:36.560Z,26.17
2023-01-01T08:48:39.788Z,26.15
2023-01-01T08:53:50.625Z,25.15
2023-01-01T08:58:58.763Z,25.83
2023-01-01T09:04:07.989Z,28.23
2023-01-01T09:09:15.108Z,30.27
2023-01-01T09:14:18.355Z,28.95
2023-01-01T09:19:21.604Z,26.20
2023-01-01T09:24:26.241Z,23.70
2023-01-01T09:29:29.514Z,20.73
2023-01-01T09:34:32.751Z,20.83
2023-01-01T09:39:37.400Z,19.30
2023-01-01T09:44:56.543Z,20.33
2023-01-01T09:50:04.331Z,19.20
2023-01-01T09:55:17.036Z,22.70
2023-01-01T10:00:21.058Z,20.33
2023-01-01T10:05:34.895Z,20.00
2023-01-01T10:10:41.870Z,18.85
2023-01-01T10:15:54.239Z,19.00
2023-01-01T10:21:03.668Z,19.27
2023-01-01T10:26:14.032Z,18.85
2023-01-01T10:31:19.228Z,16.80
2023-01-01T10:36:22.661Z,20.38
2023-01-01T10:41:27.328Z,20.02
2023-01-01T10:46:32.322Z,17.50
2023-01-01T10:51:42.928Z,18.33
2023-01-01T10:56:47.693Z,18.43
2023-01-01T11:02:16.024Z,19.50
2023-01-01T11:07:26.178Z,19.75
2023-01-01T11:13:03.433Z,18.97
2023-01-01T11:18:05.557Z,17.10
2023-01-01T11:23:21.103Z,18.02
2023-01-01T11:28:26.152Z,17.95
2023-01-01T11:33:32.869Z,19.90
2023-01-01T11:38:36.168Z,20.55
2023-01-01T11:43:46.264Z,20.83
2023-01-01T11:48:49.561Z,20.70
2023-01-01T11:53:52.884Z,20.70
2023-01-01T11:59:00.951Z,21.33
2023-01-01T12:04:10.434Z,20.23
2023-01-01T12:09:19.095Z,19.13
2023-01-01T12:14:32.911Z,19.45
2023-01-01T12:19:42.497Z,19.88
2023-01-01T12:24:47.253Z,18.85
2023-01-01T12:30:19.467Z,20.10
2023-01-01T12:35:34.073Z,19.38
2023-01-01T12:40:45.529Z,20.38
2023-01-01T12:46:15.726Z,19.88
2023-01-01T12:51:37.290Z,18.95
2023-01-01T12:56:45.538Z,18.65
2023-01-01T13:01:52.678Z,19.23
2023-01-01T13:07:03.819Z,19.20
2023-01-01T13:12:10.816Z,18.13
2023-01-01T13:17:23.392Z,17.15
2023-01-01T13:22:43.189Z,18.48
2023-01-01T13:28:06.767Z,19.42
2023-01-01T13:33:26.055Z,19.30
2023-01-01T13:38:48.398Z,19.23
2023-01-01T13:43:51.895Z,18.33
2023-01-01T13:49:20.184Z,18.80
2023-01-01T13:59:54.548Z,21.48
2023-01-01T14:05:02.272Z,23.80
2023-01-01T14:10:27.938Z,20.33
2023-01-01T14:15:33.888Z,22.58
2023-01-01T14:20:43.030Z,18.45
2023-01-01T14:25:49.285Z,17.65
2023-01-01T14:30:53.631Z,19.55
2023-01-01T14:35:59.814Z,19.92
2023-01-01T14:41:10.011Z,19.87
2023-01-01T14:46:16.878Z,19.13
2023-01-01T14:51:24.705Z,20.67
2023-01-01T14:56:30.850Z,24.67
2023-01-01T15:01:34.245Z,20.08
2023-01-01T15:06:42.379Z,22.40
2023-01-01T15:11:46.518Z,29.60
2023-01-01T15:17:01.670Z,25.17
2023-01-01T15:22:12.531Z,23.60
2023-01-01T15:27:24.386Z,26.63
2023-01-01T15:32:30.510Z,29.83
2023-01-01T15:37:39.106Z,30.63
2023-01-01T15:42:45.964Z,27.65
2023-01-01T15:47:49.572Z,22.63
2023-01-01T15:52:56.911Z,27.83
2023-01-01T15:58:00.655Z,25.93
2023-01-01T16:03:18.364Z,23.13
2023-01-01T16:08:23.238Z,25.30
2023-01-01T16:13:26.573Z,27.10
2023-01-01T16:18:32.105Z,35.47
2023-01-01T16:23:36.813Z,34.03
2023-01-01T16:28:40.156Z,28.03
2023-01-01T16:33:43.650Z,24.73
2023-01-01T16:38:48.481Z,24.80
2023-01-01T16:43:51.865Z,23.05
2023-01-01T16:48:55.443Z,23.60
2023-01-01T16:54:00.963Z,24.13
2023-01-01T16:59:04.436Z,23.92
2023-01-01T17:04:07.896Z,23.08
2023-01-01T17:09:13.650Z,22.20
2023-01-01T17:14:16.927Z,22.67
2023-01-01T17:19:20.180Z,22.23
2023-01-01T17:24:24.962Z,20.75
2023-01-01T17:29:28.327Z,20.55
2023-01-01T17:34:31.604Z,20.37
2023-01-01T17:39:36.182Z,20.73
2023-01-01T17:44:39.403Z,20.90
2023-01-01T17:49:43.512Z,21.50
2023-01-01T17:54:48.167Z,33.27
2023-01-01T17:59:51.499Z,41.05
2023-01-01T18:04:54.791Z,41.25
2023-01-01T18:09:59.358Z,36.35
2023-01-01T18:15:02.568Z,34.70
2023-01-01T18:20:07.007Z,23.92
2023-01-01T18:25:12.054Z,25.17
2023-01-01T18:30:15.863Z,28.08
2023-01-01T18:35:19.121Z,26.80
2023-01-01T18:40:24.058Z,27.05
2023-01-01T18:45:27.868Z,23.37
2023-01-01T18:50:35.818Z,24.85
2023-01-01T18:55:40.671Z,23.45
2023-01-01T19:00:44.256Z,24.47
2023-01-01T19:05:48.676Z,28.05
2023-01-01T19:10:54.957Z,25.60
2023-01-01T19:16:01.315Z,23.50
2023-01-01T19:21:18.098Z,22.63
2023-01-01T19:26:25.384Z,20.42
2023-01-01T19:31:28.842Z,23.02
2023-01-01T19:36:32.319Z,24.27
2023-01-01T19:41:38.298Z,24.85
2023-01-01T19:46:41.845Z,23.70
2023-01-01T19:51:45.219Z,23.83
2023-01-01T19:56:50.913Z,22.37
2023-01-01T20:02:25.774Z,32.13
2023-01-01T20:07:17.701Z,23.92
2023-01-01T20:12:22.311Z,26.27
2023-01-01T20:17:25.619Z,23.80
2023-01-01T20:22:28.836Z,24.25
2023-01-01T20:27:34.134Z,22.50
2023-01-01T20:32:38.133Z,24.83
2023-01-01T20:37:41.963Z,24.48
2023-01-01T20:42:46.595Z,21.80
2023-01-01T20:47:49.879Z,21.37
2023-01-01T20:52:53.107Z,22.20
2023-01-01T20:57:57.702Z,22.30
2023-01-01T21:03:02.370Z,21.90
2023-01-01T21:08:06.011Z,21.47
2023-01-01T21:13:10.659Z,19.85
2023-01-01T21:18:14.659Z,20.95
2023-01-01T21:23:21.960Z,21.10
2023-01-01T21:28:34.465Z,20.73
2023-01-01T21:33:37.937Z,19.30
2023-01-01T21:38:41.296Z,19.83
2023-01-01T21:43:50.375Z,19.48
2023-01-01T21:48:56.686Z,20.10
2023-01-01T21:54:17.574Z,20.20
2023-01-01T21:59:32.859Z,20.48
2023-01-01T22:04:38.199Z,20.60
2023-01-01T22:09:46.184Z,20.60
2023-01-01T22:14:52.402Z,20.58
2023-01-01T22:19:59.574Z,21.60
2023-01-01T22:25:19.062Z,21.85
2023-01-01T22:30:41.035Z,21.70
2023-01-01T22:35:44.448Z,20.17
2023-01-01T22:40:50.295Z,21.13
2023-01-01T22:45:55.685Z,19.92
2023-01-01T22:51:03.078Z,19.05
2023-01-01T22:56:06.909Z,19.08
2023-01-01T23:01:11.664Z,19.40
2023-01-01T23:06:14.920Z,18.83
2023-01-01T23:11:18.327Z,18.60
2023-01-01T23:16:23.116Z,19.07
2023-01-01T23:21:27.558Z,18.80
2023-01-01T23:26:31.213Z,24.85
2023-01-01T23:31:37.085Z,25.27
2023-01-01T23:36:41.691Z,23.53
2023-01-01T23:41:44.941Z,22.23
2023-01-01T23:46:49.778Z,22.15
2023-01-01T23:51:53.943Z,21.80
2023-01-01T23:56:57.171Z,20.83
